| time (UTC) | temp C | wind direction | speed KPH | gust KPH | rain 1hr cm | rain 24hr cm | rain mn cm | humidity % | barometer mb |
| 20260504231543 | 11 | 0 | 0.0 | 0.0 | 0.00 | 0.00 | 0.00 | 74 | 1008.1 |
| 20260504231027 | 11 | 0 | 0.0 | 0.0 | 0.00 | 0.00 | 0.00 | 73 | 1008.1 |
| 20260504230527 | 12 | 0 | 0.0 | 0.0 | 0.00 | 0.00 | 0.00 | 73 | 1008.1 |
| 20260504230040 | 12 | 0 | 0.0 | 0.0 | 0.00 | 0.00 | 0.00 | 72 | 1008.1 |
| 20260504225527 | 12 | 0 | 0.0 | 0.0 | 0.00 | 0.00 | 0.00 | 71 | 1008.0 |
| 20260504225027 | 12 | 0 | 0.0 | 0.0 | 0.00 | 0.00 | 0.00 | 71 | 1008.0 |
| 20260504224540 | 13 | 0 | 0.0 | 0.0 | 0.00 | 0.00 | 0.00 | 70 | 1007.9 |
| 20260504224027 | 13 | 0 | 0.0 | 4.8 | 0.00 | 0.00 | 0.00 | 68 | 1007.8 |
| 20260504223527 | 13 | 0 | 0.0 | 4.8 | 0.00 | 0.00 | 0.00 | 67 | 1007.7 |
| 20260504223054 | 14 | 0 | 0.0 | 1.6 | 0.00 | 0.00 | 0.00 | 68 | 1007.7 |
| 20260504222756 | 15 | 0 | 0.0 | 9.7 | 0.00 | 0.00 | 0.00 | 66 | 1007.8 |
| 20260504222025 | 15 | 0 | 0.0 | 9.7 | 0.00 | 0.00 | 0.00 | 65 | 1007.9 |
| 20260504221542 | 15 | 0 | 0.0 | 9.7 | 0.00 | 0.00 | 0.00 | 64 | 1007.8 |
| 20260504221027 | 15 | 190 | 0.0 | 11.3 | 0.00 | 0.00 | 0.00 | 66 | 1008.0 |
| 20260504220528 | 15 | 0 | 0.0 | 11.3 | 0.00 | 0.00 | 0.00 | 67 | 1007.7 |
| 20260504220041 | 15 | 0 | 0.0 | 4.8 | 0.00 | 0.00 | 0.00 | 67 | 1007.6 |
| 20260504215528 | 15 | 0 | 0.0 | 4.8 | 0.00 | 0.00 | 0.00 | 65 | 1007.4 |
| 20260504215028 | 15 | 0 | 0.0 | 4.8 | 0.00 | 0.00 | 0.00 | 63 | 1007.2 |
| 20260504214538 | 16 | 0 | 0.0 | 3.2 | 0.00 | 0.00 | 0.00 | 63 | 1007.2 |
| 20260504214026 | 16 | 0 | 0.0 | 12.9 | 0.00 | 0.00 | 0.00 | 63 | 1007.3 |
| 20260504213530 | 16 | 0 | 3.2 | 12.9 | 0.00 | 0.00 | 0.00 | 63 | 1007.2 |
| 20260504213049 | 16 | 218 | 0.0 | 4.8 | 0.00 | 0.00 | 0.00 | 65 | 1007.3 |
| 20260504212528 | 15 | 218 | 0.0 | 11.3 | 0.00 | 0.00 | 0.00 | 64 | 1007.3 |
| 20260504212028 | 16 | 0 | 1.6 | 11.3 | 0.00 | 0.00 | 0.00 | 63 | 1007.3 |
| 20260504211537 | 16 | 0 | 1.6 | 11.3 | 0.00 | 0.00 | 0.00 | 62 | 1007.4 |
| 20260504211025 | 16 | 250 | 1.6 | 9.7 | 0.00 | 0.00 | 0.00 | 63 | 1007.4 |
| 20260504210525 | 16 | 0 | 1.6 | 11.3 | 0.00 | 0.00 | 0.00 | 63 | 1007.2 |
| 20260504210043 | 16 | 0 | 0.0 | 11.3 | 0.00 | 0.00 | 0.00 | 63 | 1007.2 |
| 20260504205528 | 16 | 161 | 0.0 | 12.9 | 0.00 | 0.00 | 0.00 | 63 | 1007.2 |
| 20260504205030 | 16 | 0 | 3.2 | 12.9 | 0.00 | 0.00 | 0.00 | 63 | 1007.3 |
| 20260504204545 | 16 | 210 | 0.0 | 11.3 | 0.00 | 0.00 | 0.00 | 62 | 1007.4 |
| 20260504204033 | 16 | 247 | 1.6 | 11.3 | 0.00 | 0.00 | 0.00 | 61 | 1007.3 |
| 20260504203531 | 16 | 182 | 3.2 | 11.3 | 0.00 | 0.00 | 0.00 | 63 | 1007.0 |
| 20260504203053 | 16 | 232 | 0.0 | 6.4 | 0.00 | 0.00 | 0.00 | 63 | 1007.2 |
| 20260504202530 | 16 | 190 | 0.0 | 16.1 | 0.00 | 0.00 | 0.00 | 65 | 1007.2 |
| 20260504202029 | 16 | 246 | 4.8 | 16.1 | 0.00 | 0.00 | 0.00 | 63 | 1007.2 |
| 20260504201538 | 16 | 189 | 1.6 | 8.0 | 0.00 | 0.00 | 0.00 | 64 | 1007.2 |
| 20260504201032 | 16 | 0 | 0.0 | 16.1 | 0.00 | 0.00 | 0.00 | 66 | 1007.2 |
| 20260504200527 | 16 | 288 | 3.2 | 16.1 | 0.00 | 0.00 | 0.00 | 66 | 1007.2 |
| 20260504200038 | 15 | 146 | 3.2 | 11.3 | 0.00 | 0.00 | 0.00 | 67 | 1007.2 |
| 20260504195529 | 15 | 0 | 1.6 | 8.0 | 0.00 | 0.03 | 0.00 | 66 | 1007.2 |
| 20260504195028 | 15 | 0 | 0.0 | 11.3 | 0.00 | 0.03 | 0.00 | 71 | 1007.4 |
| 20260504194543 | 15 | 189 | 0.0 | 11.3 | 0.00 | 0.03 | 0.00 | 71 | 1007.4 |
| 20260504194029 | 14 | 190 | 0.0 | 9.7 | 0.00 | 0.03 | 0.00 | 71 | 1007.3 |
| 20260504193529 | 14 | 228 | 1.6 | 9.7 | 0.00 | 0.03 | 0.00 | 72 | 1007.3 |
| 20260504193040 | 13 | 260 | 1.6 | 11.3 | 0.00 | 0.03 | 0.00 | 72 | 1007.4 |
| 20260504192528 | 13 | 232 | 3.2 | 11.3 | 0.00 | 0.03 | 0.00 | 73 | 1007.5 |
| 20260504192032 | 13 | 257 | 0.0 | 12.9 | 0.00 | 0.03 | 0.00 | 75 | 1007.6 |
| 20260504191538 | 12 | 213 | 1.6 | 12.9 | 0.00 | 0.03 | 0.00 | 75 | 1007.7 |
| 20260504191028 | 12 | 227 | 1.6 | 12.9 | 0.00 | 0.03 | 0.00 | 75 | 1007.8 |
| 20260504190531 | 12 | 0 | 0.0 | 12.9 | 0.00 | 0.03 | 0.00 | 77 | 1007.7 |
| 20260504190040 | 12 | 246 | 1.6 | 12.9 | 0.00 | 0.03 | 0.00 | 77 | 1007.8 |
| 20260504185530 | 11 | 170 | 1.6 | 12.9 | 0.00 | 0.08 | 0.00 | 76 | 1007.9 |
| 20260504185030 | 11 | 211 | 0.0 | 6.4 | 0.00 | 0.08 | 0.00 | 77 | 1008.1 |
| 20260504184539 | 11 | 227 | 1.6 | 11.3 | 0.00 | 0.08 | 0.00 | 76 | 1008.2 |
| 20260504184030 | 11 | 246 | 3.2 | 11.3 | 0.00 | 0.08 | 0.00 | 76 | 1008.3 |
| 20260504183528 | 11 | 211 | 1.6 | 6.4 | 0.00 | 0.08 | 0.00 | 75 | 1008.4 |
| 20260504183037 | 11 | 221 | 1.6 | 6.4 | 0.00 | 0.08 | 0.00 | 73 | 1008.3 |
| 20260504182530 | 11 | 221 | 0.0 | 6.4 | 0.00 | 0.08 | 0.00 | 72 | 1008.5 |
| 20260504182051 | 12 | 221 | 0.0 | 6.4 | 0.00 | 0.08 | 0.00 | 71 | 1008.4 |
| 20260504181545 | 12 | 0 | 0.0 | 14.5 | 0.00 | 0.08 | 0.00 | 69 | 1008.4 |
| 20260504181029 | 12 | 0 | 1.6 | 14.5 | 0.00 | 0.08 | 0.00 | 69 | 1008.3 |
| 20260504180531 | 12 | 0 | 4.8 | 14.5 | 0.00 | 0.08 | 0.00 | 67 | 1008.1 |
| 20260504180041 | 12 | 252 | 0.0 | 11.3 | 0.00 | 0.08 | 0.00 | 68 | 1008.1 |
| 20260504175527 | 12 | 249 | 1.6 | 11.3 | 0.00 | 0.23 | 0.00 | 68 | 1007.9 |
| 20260504175029 | 12 | 234 | 3.2 | 11.3 | 0.00 | 0.23 | 0.00 | 69 | 1008.0 |
| 20260504174541 | 12 | 241 | 3.2 | 11.3 | 0.00 | 0.23 | 0.00 | 69 | 1007.9 |
| 20260504174031 | 12 | 257 | 0.0 | 11.3 | 0.00 | 0.23 | 0.00 | 71 | 1007.8 |
| 20260504173527 | 11 | 256 | 1.6 | 11.3 | 0.00 | 0.23 | 0.00 | 72 | 1007.8 |
| 20260504173038 | 11 | 236 | 1.6 | 11.3 | 0.00 | 0.23 | 0.00 | 73 | 1007.8 |
| 20260504172527 | 11 | 239 | 0.0 | 11.3 | 0.00 | 0.23 | 0.00 | 74 | 1007.8 |
| 20260504172029 | 10 | 211 | 1.6 | 11.3 | 0.00 | 0.23 | 0.00 | 74 | 1007.6 |
| 20260504171545 | 10 | 0 | 0.0 | 17.7 | 0.00 | 0.23 | 0.00 | 74 | 1007.5 |
| 20260504171028 | 11 | 0 | 1.6 | 17.7 | 0.00 | 0.23 | 0.00 | 72 | 1007.6 |
| 20260504170527 | 11 | 197 | 1.6 | 17.7 | 0.00 | 0.23 | 0.00 | 69 | 1007.7 |
| 20260504151059 | 13 | 215 | 1.6 | 11.3 | 0.00 | 0.53 | 0.00 | 56 | 1009.1 |
| 20260504151027 | 13 | 215 | 1.6 | 11.3 | 0.00 | 0.53 | 0.00 | 56 | 1009.1 |
| 20260504150528 | 12 | 289 | 0.0 | 11.3 | 0.00 | 0.53 | 0.00 | 56 | 1009.0 |
| 20260504141027 | 12 | 238 | 1.6 | 11.3 | 0.00 | 0.71 | 0.00 | 59 | 1009.9 |
| 20260504140528 | 12 | 179 | 1.6 | 8.0 | 0.00 | 0.71 | 0.00 | 55 | 1010.0 |
| 20260504130528 | 10 | 237 | 3.2 | 11.3 | 0.00 | 0.94 | 0.00 | 62 | 1010.2 |
| 20260504110525 | 6 | 0 | 0.0 | 4.8 | 0.00 | 1.27 | 0.00 | 77 | 1009.7 |
| 20260504100525 | 2 | 0 | 0.0 | 0.0 | 0.00 | 1.47 | 0.00 | 83 | 1009.3 |
| 20260504081538 | 3 | 274 | 4.8 | 16.1 | 0.00 | 1.68 | 0.00 | 77 | 1008.4 |
| 20260504081027 | 3 | 219 | 1.6 | 11.3 | 0.00 | 1.68 | 0.00 | 77 | 1008.5 |
| 20260504080528 | 3 | 257 | 1.6 | 12.9 | 0.00 | 1.68 | 0.00 | 77 | 1008.6 |
| 20260504050525 | 3 | 0 | 1.6 | 6.4 | 0.00 | 1.93 | 0.00 | 78 | 1007.1 |
| 20260504045525 | 3 | 0 | 1.6 | 6.4 | 0.00 | 1.93 | 0.00 | 78 | 1007.1 |
| 20260504045025 | 3 | 0 | 1.6 | 6.4 | 0.00 | 1.93 | 0.00 | 77 | 1007.2 |
| 20260504044544 | 3 | 0 | 1.6 | 9.7 | 0.00 | 1.93 | 0.00 | 77 | 1007.1 |
| 20260504044025 | 3 | 0 | 0.0 | 12.9 | 0.00 | 1.93 | 0.00 | 77 | 1007.3 |
| 20260504043526 | 3 | 272 | 1.6 | 12.9 | 0.00 | 1.93 | 0.00 | 77 | 1007.1 |
| 20260504043037 | 3 | 273 | 3.2 | 12.9 | 0.00 | 1.93 | 0.00 | 77 | 1007.1 |
| 20260504042528 | 3 | 238 | 0.0 | 6.4 | 0.00 | 1.93 | 0.00 | 77 | 1007.0 |
| 20260504042025 | 3 | 0 | 0.0 | 6.4 | 0.00 | 1.93 | 0.00 | 77 | 1006.9 |
| 20260504041537 | 3 | 238 | 0.0 | 6.4 | 0.00 | 1.93 | 0.00 | 77 | 1006.8 |
| 20260504041027 | 3 | 0 | 1.6 | 6.4 | 0.00 | 1.93 | 0.00 | 77 | 1006.8 |
| 20260504040526 | 3 | 238 | 1.6 | 6.4 | 0.00 | 1.93 | 0.00 | 77 | 1006.8 |
| 20260504040044 | 3 | 0 | 0.0 | 4.8 | 0.00 | 1.93 | 0.00 | 77 | 1006.7 |
| 20260504035526 | 3 | 0 | 0.0 | 12.9 | 0.00 | 1.93 | 1.93 | 77 | 1006.8 |
| 20260504035027 | 3 | 236 | 1.6 | 12.9 | 0.00 | 1.93 | 1.93 | 76 | 1006.7 |
| 20260504034600 | 3 | 275 | 0.0 | 6.4 | 0.00 | 1.93 | 1.93 | 76 | 1006.7 |
| 20260504034025 | 3 | 0 | 1.6 | 6.4 | 0.00 | 1.93 | 1.93 | 76 | 1006.7 |
| 20260504033526 | 4 | 275 | 0.0 | 12.9 | 0.00 | 1.93 | 1.93 | 76 | 1006.6 |
| 20260504033038 | 4 | 0 | 1.6 | 12.9 | 0.00 | 1.93 | 1.93 | 75 | 1006.6 |
| 20260504032528 | 4 | 278 | 1.6 | 11.3 | 0.00 | 1.93 | 1.93 | 76 | 1006.5 |
| 20260504032028 | 4 | 296 | 3.2 | 11.3 | 0.00 | 1.93 | 1.93 | 76 | 1006.5 |
| 20260504031537 | 4 | 247 | 1.6 | 11.3 | 0.00 | 1.93 | 1.93 | 76 | 1006.5 |
| 20260504031027 | 4 | 259 | 3.2 | 11.3 | 0.00 | 1.93 | 1.93 | 77 | 1006.5 |
| 20260504030558 | 4 | 283 | 1.6 | 9.7 | 0.00 | 1.93 | 1.93 | 77 | 1006.5 |
| 20260504030046 | 4 | 283 | 1.6 | 11.3 | 0.00 | 1.93 | 1.93 | 76 | 1006.4 |
| 20260504025526 | 4 | 275 | 3.2 | 11.3 | 0.00 | 1.93 | 1.93 | 77 | 1006.4 |
| 20260504025026 | 4 | 268 | 1.6 | 11.3 | 0.00 | 1.93 | 1.93 | 77 | 1006.2 |
| 20260504024541 | 4 | 246 | 1.6 | 11.3 | 0.00 | 1.93 | 1.93 | 78 | 1006.1 |
| 20260504024025 | 4 | 239 | 3.2 | 9.7 | 0.00 | 1.93 | 1.93 | 78 | 1006.3 |
| 20260504023525 | 4 | 240 | 1.6 | 9.7 | 0.00 | 1.93 | 1.93 | 78 | 1006.1 |
| 20260504023041 | 4 | 238 | 1.6 | 12.9 | 0.00 | 1.93 | 1.93 | 79 | 1006.0 |
| 20260504022525 | 4 | 0 | 1.6 | 12.9 | 0.00 | 1.93 | 1.93 | 79 | 1006.0 |
| 20260504022025 | 4 | 263 | 1.6 | 12.9 | 0.00 | 1.93 | 1.93 | 80 | 1006.0 |
| 20260504021539 | 4 | 269 | 3.2 | 12.9 | 0.00 | 1.93 | 1.93 | 81 | 1005.9 |
| 20260504021025 | 4 | 230 | 0.0 | 4.8 | 0.00 | 1.93 | 1.93 | 81 | 1005.9 |
| 20260504020525 | 4 | 0 | 1.6 | 8.0 | 0.00 | 1.93 | 1.93 | 81 | 1006.1 |
| 20260504020038 | 5 | 230 | 0.0 | 8.0 | 0.00 | 1.93 | 1.93 | 81 | 1006.0 |
| 20260504015526 | 5 | 230 | 1.6 | 11.3 | 0.00 | 1.93 | 1.93 | 81 | 1006.1 |
| 20260504015026 | 5 | 230 | 1.6 | 11.3 | 0.00 | 1.93 | 1.93 | 81 | 1005.8 |
| 20260504014539 | 5 | 230 | 1.6 | 11.3 | 0.00 | 1.93 | 1.93 | 82 | 1005.9 |
| 20260504014025 | 5 | 0 | 1.6 | 9.7 | 0.00 | 1.93 | 1.93 | 83 | 1005.8 |
| 20260504013527 | 5 | 0 | 3.2 | 11.3 | 0.00 | 1.93 | 1.93 | 84 | 1005.7 |
| 20260504013047 | 5 | 247 | 1.6 | 11.3 | 0.00 | 1.93 | 1.93 | 85 | 1005.7 |
| 20260504012530 | 5 | 250 | 0.0 | 12.9 | 0.00 | 1.93 | 1.93 | 86 | 1005.5 |
| 20260504012025 | 5 | 269 | 1.6 | 12.9 | 0.00 | 1.93 | 1.93 | 87 | 1005.6 |
| 20260504011536 | 5 | 286 | 0.0 | 8.0 | 0.00 | 1.93 | 1.93 | 88 | 1005.4 |
| 20260504011024 | 5 | 0 | 1.6 | 8.0 | 0.00 | 1.93 | 1.93 | 88 | 1005.3 |
| 20260504010526 | 5 | 0 | 0.0 | 0.0 | 0.00 | 1.93 | 1.93 | 88 | 1005.4 |
| 20260504010040 | 5 | 0 | 0.0 | 0.0 | 0.00 | 1.93 | 1.93 | 87 | 1005.3 |
| 20260504005526 | 5 | 0 | 0.0 | 0.0 | 0.00 | 1.93 | 1.93 | 87 | 1005.2 |
| 20260504005026 | 5 | 0 | 0.0 | 0.0 | 0.00 | 1.93 | 1.93 | 87 | 1005.3 |
| 20260504004539 | 5 | 0 | 0.0 | 0.0 | 0.00 | 1.93 | 1.93 | 86 | 1005.1 |
| 20260504004026 | 6 | 0 | 0.0 | 0.0 | 0.00 | 1.93 | 1.93 | 86 | 1004.9 |
| 20260504003525 | 6 | 0 | 0.0 | 0.0 | 0.00 | 1.93 | 1.93 | 86 | 1004.8 |
| 20260504003038 | 6 | 0 | 0.0 | 0.0 | 0.00 | 1.93 | 1.93 | 86 | 1004.7 |
| 20260504002525 | 6 | 0 | 0.0 | 0.0 | 0.00 | 1.93 | 1.93 | 86 | 1004.7 |
| 20260504002025 | 6 | 0 | 0.0 | 0.0 | 0.00 | 1.93 | 1.93 | 86 | 1004.6 |
| 20260504001535 | 6 | 0 | 0.0 | 6.4 | 0.00 | 1.93 | 1.93 | 85 | 1004.5 |
| 20260504001025 | 6 | 0 | 0.0 | 6.4 | 0.00 | 1.93 | 1.93 | 85 | 1004.5 |
| 20260504000525 | 6 | 302 | 0.0 | 4.8 | 0.00 | 1.93 | 1.93 | 85 | 1004.4 |
| 20260504000037 | 6 | 301 | 0.0 | 6.4 | 0.00 | 1.93 | 1.93 | 85 | 1004.3 |
| 20260503235526 | 6 | 0 | 0.0 | 6.4 | 0.00 | 1.93 | 1.93 | 85 | 1004.2 |
| 20260503235026 | 6 | 0 | 1.6 | 11.3 | 0.00 | 1.93 | 1.93 | 85 | 1004.2 |
| 20260503234538 | 6 | 302 | 1.6 | 11.3 | 0.00 | 1.93 | 1.93 | 84 | 1004.2 |
| 20260503234025 | 7 | 0 | 0.0 | 4.8 | 0.00 | 1.93 | 1.93 | 84 | 1004.2 |
| 20260503233712 | 7 | 0 | 0.0 | 4.8 | 0.00 | 1.93 | 1.93 | 84 | 1003.9 |
| 20260503233040 | 7 | 0 | 0.0 | 11.3 | 0.00 | 1.93 | 1.93 | 83 | 1004.0 |
| 20260503232530 | 7 | 0 | 0.0 | 17.7 | 0.00 | 1.93 | 1.93 | 83 | 1003.8 |
| 20260503232030 | 7 | 0 | 1.6 | 17.7 | 0.00 | 1.93 | 1.93 | 83 | 1003.8 |